Time;durP1;ratioP1;P1;durP2;ratioP2;P2;SDS_P1;SDS_P2;PMS_P1;PMS_P2;Temp;Humidity;BMP_temperature;BMP_pressure;BME280_temperature;BME280_humidity;BME280_pressure;Samples;Min_cycle;Max_cycle;Signal;HPM_P1;HPM_P2
2022/04/02 00:00:17;;;;;;;26.80;17.57;;;0.80;99.90;;;;;;4966203;28;20180;-83
2022/04/02 00:02:44;;;;;;;26.20;16.77;;;0.80;99.90;;;;;;4968773;28;20648;-83
2022/04/02 00:05:10;;;;;;;22.70;15.60;;;0.80;99.90;;;;;;4978803;28;20187;-83
2022/04/02 00:07:36;;;;;;;29.77;17.60;;;0.80;99.90;;;;;;4963895;28;20181;-84
2022/04/02 00:10:03;;;;;;;27.10;15.50;;;0.80;99.90;;;;;;4982500;28;20447;-83
2022/04/02 00:12:29;;;;;;;25.80;16.65;;;0.80;99.90;;;;;;4967859;28;20334;-83
2022/04/02 00:14:55;;;;;;;27.03;16.70;;;0.80;99.90;;;;;;4966939;28;20259;-83
2022/04/02 00:17:20;;;;;;;25.90;16.23;;;0.80;99.90;;;;;;4980211;28;20175;-82
2022/04/02 00:19:46;;;;;;;24.47;16.47;;;0.80;99.90;;;;;;4964951;28;20191;-83
2022/04/02 00:22:12;;;;;;;24.60;16.13;;;0.80;99.90;;;;;;4968430;28;20218;-83
2022/04/02 00:24:38;;;;;;;22.98;17.40;;;0.80;99.90;;;;;;4968701;28;20323;-84
2022/04/02 00:27:03;;;;;;;23.63;16.27;;;0.80;99.90;;;;;;4964117;28;20275;-84
2022/04/02 00:29:30;;;;;;;28.20;16.50;;;0.90;99.90;;;;;;4970873;28;20207;-84
2022/04/02 00:31:56;;;;;;;26.50;16.02;;;1.00;99.90;;;;;;4968807;28;20291;-85
2022/04/02 00:34:22;;;;;;;25.30;15.20;;;0.90;99.90;;;;;;4974530;28;20259;-84
2022/04/02 00:36:48;;;;;;;23.42;15.50;;;0.90;99.90;;;;;;4973070;28;20658;-83
2022/04/02 00:39:13;;;;;;;21.07;14.77;;;0.90;99.90;;;;;;4966101;28;20255;-84
2022/04/02 00:41:39;;;;;;;23.90;14.40;;;0.90;99.90;;;;;;4968451;28;20700;-84
2022/04/02 00:44:13;;;;;;;24.57;16.40;;;0.90;99.90;;;;;;4969450;28;20184;-84
2022/04/02 00:46:41;;;;;;;22.15;13.70;;;0.90;99.90;;;;;;4974736;28;20179;-84
2022/04/02 00:49:08;;;;;;;25.08;13.50;;;0.90;99.90;;;;;;4975421;28;20199;-83
2022/04/02 00:51:41;;;;;;;20.08;13.23;;;0.90;99.90;;;;;;4975960;28;20371;-84
2022/04/02 00:54:08;;;;;;;25.60;13.80;;;0.90;99.90;;;;;;4970686;28;20295;-83
2022/04/02 00:56:35;;;;;;;23.20;13.45;;;0.90;99.90;;;;;;4970819;28;20194;-83
2022/04/02 00:59:00;;;;;;;22.65;14.05;;;0.90;99.90;;;;;;4971460;28;20676;-83
2022/04/02 01:01:26;;;;;;;19.97;12.60;;;0.90;99.90;;;;;;4974323;28;20208;-83
2022/04/02 01:03:51;;;;;;;24.03;13.77;;;0.90;99.90;;;;;;4974441;28;20183;-83
2022/04/02 01:06:17;;;;;;;23.07;13.07;;;0.80;99.90;;;;;;4973611;28;20601;-83
2022/04/02 01:08:43;;;;;;;24.77;14.70;;;0.80;99.90;;;;;;4976446;28;20194;-83
2022/04/02 01:11:09;;;;;;;21.83;12.83;;;0.80;99.90;;;;;;4989935;28;20444;-83
2022/04/02 01:13:35;;;;;;;19.93;12.67;;;0.80;99.90;;;;;;4988315;28;21160;-84
2022/04/02 01:16:01;;;;;;;24.77;13.18;;;0.80;99.90;;;;;;4977959;28;20274;-83
2022/04/02 01:18:27;;;;;;;22.42;13.70;;;0.80;99.90;;;;;;4981117;28;20168;-83
2022/04/02 01:20:58;;;;;;;21.05;12.90;;;0.80;99.90;;;;;;4982396;28;20195;-82
2022/04/02 01:23:29;;;;;;;23.52;13.65;;;0.80;99.90;;;;;;4981910;28;20172;-83
2022/04/02 01:25:58;;;;;;;19.38;12.70;;;0.70;99.90;;;;;;4977934;28;20175;-83
2022/04/02 01:28:24;;;;;;;16.63;11.48;;;0.80;99.90;;;;;;4993631;28;20181;-83
2022/04/02 01:30:50;;;;;;;18.53;13.40;;;0.70;99.90;;;;;;4978329;28;20215;-83
2022/04/02 01:33:16;;;;;;;28.33;14.13;;;0.80;99.90;;;;;;4977278;28;20481;-83
2022/04/02 01:35:41;;;;;;;14.60;9.50;;;0.80;99.90;;;;;;4996127;28;20180;-82
2022/04/02 01:38:07;;;;;;;24.37;11.50;;;;;;;;;;4981278;28;20442;-83
2022/04/02 01:40:33;;;;;;;22.25;13.27;;;0.70;99.90;;;;;;4980633;28;20242;-83
2022/04/02 01:42:58;;;;;;;17.63;10.30;;;0.70;99.90;;;;;;4979127;28;20183;-83
2022/04/02 01:45:25;;;;;;;18.80;10.90;;;;;;;;;;5019123;23;20238;-82
2022/04/02 01:47:51;;;;;;;18.60;12.05;;;0.80;99.90;;;;;;5001668;28;20226;-84
2022/04/02 01:50:17;;;;;;;19.15;12.38;;;;;;;;;;5000955;28;20900;-83
2022/04/02 01:52:44;;;;;;;18.23;9.40;;;;;;;;;;5000447;28;20170;-85
2022/04/02 01:55:09;;;;;;;16.23;10.02;;;0.70;99.90;;;;;;4992232;28;20622;-81
2022/04/02 01:57:36;;;;;;;14.27;11.00;;;0.70;99.90;;;;;;4980646;28;20207;-85
2022/04/02 02:00:04;;;;;;;16.88;10.20;;;0.30;99.90;;;;;;4980172;28;20254;-82
2022/04/02 02:02:29;;;;;;;24.48;12.38;;;0.70;99.90;;;;;;4979586;28;20184;-79
2022/04/02 02:04:56;;;;;;;17.57;12.13;;;0.70;99.90;;;;;;4978255;28;20282;-80
2022/04/02 02:07:21;;;;;;;17.80;10.88;;;0.70;99.90;;;;;;4978592;28;20196;-80
2022/04/02 02:09:47;;;;;;;14.30;10.63;;;;;;;;;;4979947;28;20171;-80
2022/04/02 02:12:15;;;;;;;17.73;10.47;;;0.70;99.90;;;;;;4979256;28;20183;-81
2022/04/02 02:14:41;;;;;;;16.95;11.80;;;0.70;99.90;;;;;;4978963;28;20458;-83
2022/04/02 02:17:06;;;;;;;18.87;12.37;;;0.80;99.90;;;;;;4979139;28;20168;-83
2022/04/02 02:19:32;;;;;;;17.40;11.43;;;0.80;99.90;;;;;;4979481;28;20866;-82
2022/04/02 02:21:57;;;;;;;18.63;9.23;;;0.70;99.90;;;;;;4978535;28;20184;-83
2022/04/02 02:24:23;;;;;;;16.43;10.47;;;0.70;99.90;;;;;;4978473;28;20227;-82
2022/04/02 02:26:50;;;;;;;18.13;12.67;;;;;;;;;;4979147;28;20183;-80
2022/04/02 02:29:15;;;;;;;14.77;10.63;;;0.60;99.90;;;;;;4979718;28;20188;-83
2022/04/02 02:31:41;;;;;;;21.33;10.50;;;0.60;99.90;;;;;;4978255;28;20186;-80
2022/04/02 02:36:52;;;;;;;16.55;10.80;;;0.60;99.90;;;;;;4980111;28;20659;-81
2022/04/02 02:39:17;;;;;;;17.33;8.73;;;0.70;99.90;;;;;;4974363;28;20357;-81
2022/04/02 02:41:43;;;;;;;13.53;10.07;;;0.70;99.90;;;;;;4975221;28;20196;-83
2022/04/02 02:44:08;;;;;;;13.37;10.53;;;0.60;99.90;;;;;;4974176;28;20203;-83
2022/04/02 02:46:34;;;;;;;12.10;9.07;;;0.60;99.90;;;;;;4959857;29;20169;-82
2022/04/02 02:49:00;;;;;;;16.03;9.30;;;;;;;;;;4975039;28;20756;-83
2022/04/02 02:51:26;;;;;;;13.35;9.15;;;0.60;99.90;;;;;;4973447;28;20416;-84
2022/04/02 02:53:51;;;;;;;15.57;11.50;;;0.60;99.90;;;;;;4960244;29;20207;-84
2022/04/02 02:56:17;;;;;;;16.23;11.10;;;0.60;99.90;;;;;;4960036;29;20172;-85
2022/04/02 02:58:43;;;;;;;17.33;9.73;;;0.60;99.90;;;;;;4960886;29;20194;-85
2022/04/02 03:01:11;;;;;;;14.60;10.00;;;0.70;99.90;;;;;;4974767;28;20560;-84
2022/04/02 03:03:37;;;;;;;15.68;10.65;;;0.60;99.90;;;;;;4961557;28;20188;-82
2022/04/02 03:06:02;;;;;;;16.15;10.30;;;0.70;99.90;;;;;;4976204;28;20692;-82
2022/04/02 03:08:28;;;;;;;12.70;8.50;;;0.60;99.90;;;;;;4975509;28;20180;-84
2022/04/02 03:10:54;;;;;;;16.60;11.37;;;0.60;99.90;;;;;;4975684;28;20709;-83
2022/04/02 03:13:20;;;;;;;18.85;11.15;;;0.60;99.90;;;;;;4971016;28;20543;-83
2022/04/02 03:15:46;;;;;;;12.98;9.35;;;0.60;99.90;;;;;;4979781;28;20210;-81
2022/04/02 03:18:12;;;;;;;16.83;9.40;;;0.60;99.90;;;;;;4977329;28;20164;-78
2022/04/02 03:20:38;;;;;;;18.03;10.50;;;0.60;99.90;;;;;;4978294;28;20175;-79
2022/04/02 03:23:05;;;;;;;14.10;9.05;;;0.50;99.90;;;;;;4978043;28;20510;-81
2022/04/02 03:25:31;;;;;;;19.17;11.38;;;0.60;99.90;;;;;;4976218;28;20199;-84
2022/04/02 03:27:57;;;;;;;15.77;10.38;;;0.90;99.90;;;;;;4998024;28;20262;-79
2022/04/02 03:30:24;;;;;;;22.17;11.43;;;0.50;99.90;;;;;;4997656;28;20218;-82
2022/04/02 03:32:52;;;;;;;21.20;12.65;;;0.40;99.90;;;;;;4998013;28;20355;-85
2022/04/02 03:35:18;;;;;;;17.33;9.82;;;0.50;99.90;;;;;;4984486;28;20269;-84
2022/04/02 03:37:46;;;;;;;22.00;10.57;;;1.10;99.90;;;;;;4979117;28;20176;-82
2022/04/02 03:40:15;;;;;;;17.80;10.10;;;0.80;99.90;;;;;;4977660;28;20175;-81
2022/04/02 03:42:44;;;;;;;17.05;11.70;;;0.40;99.90;;;;;;4976923;28;20279;-81
2022/04/02 03:45:11;;;;;;;17.73;12.20;;;0.70;99.90;;;;;;4977008;28;20219;-81
2022/04/02 03:47:37;;;;;;;16.88;11.55;;;0.60;99.90;;;;;;4977888;28;20184;-81
2022/04/02 03:50:03;;;;;;;16.90;11.47;;;0.40;99.90;;;;;;4978520;28;20286;-82
2022/04/02 03:52:29;;;;;;;15.43;10.63;;;0.50;99.90;;;;;;4977335;28;20183;-83
2022/04/02 03:54:55;;;;;;;18.80;12.80;;;0.90;99.90;;;;;;4979619;28;20220;-82
2022/04/02 03:57:21;;;;;;;16.20;10.83;;;0.60;99.90;;;;;;4978933;28;20183;-86
2022/04/02 03:59:47;;;;;;;17.55;11.48;;;;;;;;;;4978780;28;20251;-84
2022/04/02 04:02:13;;;;;;;13.13;9.73;;;0.70;99.90;;;;;;4977891;28;20168;-85
2022/04/02 04:04:40;;;;;;;17.03;10.30;;;0.60;99.90;;;;;;4978437;28;20750;-84
2022/04/02 04:07:06;;;;;;;21.08;11.70;;;0.60;99.90;;;;;;4978864;28;20514;-83
2022/04/02 04:09:32;;;;;;;17.10;11.75;;;4.00;99.90;;;;;;4977860;28;20686;-86
2022/04/02 04:11:58;;;;;;;18.93;12.47;;;1.20;99.90;;;;;;4978382;28;20203;-80
2022/04/02 04:14:24;;;;;;;15.60;10.57;;;0.70;99.90;;;;;;4978015;28;20187;-83
2022/04/02 04:16:51;;;;;;;17.42;11.75;;;0.30;99.90;;;;;;4976714;28;20416;-83
2022/04/02 04:19:17;;;;;;;19.52;12.30;;;;;;;;;;4978600;28;20179;-84
2022/04/02 04:21:43;;;;;;;17.05;11.05;;;0.60;99.90;;;;;;4977198;28;20188;-83
2022/04/02 04:24:10;;;;;;;20.20;11.30;;;2.00;99.90;;;;;;4977850;28;20279;-81
2022/04/02 04:26:36;;;;;;;22.85;12.38;;;0.60;99.90;;;;;;4975468;28;20426;-83
2022/04/02 04:29:05;;;;;;;20.07;11.67;;;0.60;99.90;;;;;;4974960;28;20584;-81
2022/04/02 04:31:31;;;;;;;18.70;11.93;;;;;;;;;;4966706;28;20482;-83
2022/04/02 04:33:57;;;;;;;15.68;11.55;;;;;;;;;;4967011;28;20262;-79
2022/04/02 04:36:23;;;;;;;20.27;10.27;;;0.60;99.90;;;;;;4968330;28;20187;-82
2022/04/02 04:38:50;;;;;;;17.08;10.35;;;0.60;99.90;;;;;;4984992;28;20665;-82
2022/04/02 04:41:19;;;;;;;20.23;11.32;;;0.60;99.90;;;;;;4968684;28;20305;-83
2022/04/02 04:43:48;;;;;;;14.43;9.98;;;0.60;99.90;;;;;;4969777;28;20287;-82
2022/04/02 04:46:18;;;;;;;16.63;11.00;;;0.60;99.90;;;;;;4968922;28;21111;-83
2022/04/02 04:48:44;;;;;;;19.05;10.85;;;0.60;99.90;;;;;;4966718;28;20198;-84
2022/04/02 04:51:10;;;;;;;23.63;9.43;;;;;;;;;;4963844;28;20191;-82
2022/04/02 04:53:36;;;;;;;12.82;9.10;;;0.60;99.90;;;;;;4968782;28;20179;-81
2022/04/02 04:56:02;;;;;;;14.90;10.90;;;0.60;99.90;;;;;;4968082;28;20266;-81
2022/04/02 04:58:27;;;;;;;23.00;10.90;;;0.70;99.90;;;;;;4968753;28;20176;-80
2022/04/02 05:00:55;;;;;;;14.73;10.30;;;0.70;99.90;;;;;;4961802;28;20187;-80
2022/04/02 05:03:21;;;;;;;14.23;8.65;;;0.70;99.90;;;;;;4961429;28;20183;-82
2022/04/02 05:05:47;;;;;;;13.85;10.30;;;0.60;99.90;;;;;;4962636;28;20681;-82
2022/04/02 05:08:13;;;;;;;14.13;10.32;;;0.60;99.90;;;;;;4963392;28;20266;-82
2022/04/02 05:10:41;;;;;;;14.80;9.67;;;0.70;99.90;;;;;;4968270;28;20339;-81
2022/04/02 05:13:08;;;;;;;18.05;9.68;;;0.70;99.90;;;;;;4963530;28;20465;-81
2022/04/02 05:15:35;;;;;;;14.00;8.90;;;0.60;99.90;;;;;;4960033;28;20204;-80
2022/04/02 05:18:02;;;;;;;16.10;10.48;;;0.60;99.90;;;;;;4967560;28;20259;-78
2022/04/02 05:20:27;;;;;;;14.57;10.32;;;0.60;99.90;;;;;;4966806;28;20235;-81
2022/04/02 05:22:53;;;;;;;12.87;8.40;;;0.60;99.90;;;;;;4968529;28;20187;-81
2022/04/02 05:25:19;;;;;;;13.83;9.73;;;0.70;99.90;;;;;;4964703;28;20477;-79
2022/04/02 05:27:45;;;;;;;13.67;8.70;;;0.70;99.90;;;;;;4968630;28;20199;-82
2022/04/02 05:30:11;;;;;;;13.97;9.07;;;0.70;99.90;;;;;;4965231;28;20235;-83
2022/04/02 05:32:37;;;;;;;15.82;9.68;;;0.70;99.90;;;;;;4965423;28;20648;-81
2022/04/02 05:35:04;;;;;;;14.60;8.32;;;0.70;99.90;;;;;;4964163;28;20208;-82
2022/04/02 05:37:30;;;;;;;16.42;8.50;;;0.70;99.90;;;;;;4968854;28;20214;-81
2022/04/02 05:39:56;;;;;;;14.40;9.38;;;0.70;99.90;;;;;;4952915;28;20919;-81
2022/04/02 05:42:22;;;;;;;15.38;10.38;;;0.70;99.90;;;;;;4980155;28;20217;-81
2022/04/02 05:44:48;;;;;;;11.32;7.18;;;0.70;99.90;;;;;;4966497;28;20242;-81
2022/04/02 05:47:14;;;;;;;13.65;10.38;;;0.70;99.90;;;;;;4966179;28;20203;-81
2022/04/02 05:49:40;;;;;;;11.68;7.72;;;0.60;99.90;;;;;;4970744;28;21234;-82
2022/04/02 05:52:07;;;;;;;11.77;8.47;;;0.70;99.90;;;;;;4971070;28;20191;-83
2022/04/02 05:54:34;;;;;;;13.90;7.97;;;0.60;99.90;;;;;;4969761;28;22647;-84
2022/04/02 05:57:00;;;;;;;11.40;8.18;;;0.60;99.90;;;;;;4968608;28;20184;-81
2022/04/02 05:59:26;;;;;;;11.73;7.90;;;0.70;99.90;;;;;;4971498;28;20196;-83
2022/04/02 06:01:52;;;;;;;8.93;7.47;;;0.70;99.90;;;;;;4972387;28;20446;-80
2022/04/02 06:04:17;;;;;;;12.60;7.80;;;0.60;99.90;;;;;;4987102;28;20295;-83
2022/04/02 06:06:43;;;;;;;9.27;6.70;;;0.60;99.90;;;;;;4972785;28;20680;-82
2022/04/02 06:09:09;;;;;;;11.97;7.13;;;0.70;99.90;;;;;;4967518;28;20763;-83
2022/04/02 06:11:34;;;;;;;12.30;8.17;;;0.60;99.90;;;;;;4969732;28;20184;-83
2022/04/02 06:14:00;;;;;;;8.80;6.57;;;0.60;99.90;;;;;;4967977;28;20188;-80
2022/04/02 06:16:26;;;;;;;13.10;7.30;;;0.60;99.90;;;;;;4967262;28;20256;-82
2022/04/02 06:18:55;;;;;;;11.30;7.87;;;0.60;99.90;;;;;;4968087;28;20439;-77
2022/04/02 06:21:21;;;;;;;13.43;7.43;;;0.70;99.90;;;;;;4965848;28;20445;-78
2022/04/02 06:23:46;;;;;;;13.40;8.47;;;0.70;99.90;;;;;;4968383;28;20196;-83
2022/04/02 06:26:12;;;;;;;9.90;7.30;;;0.60;99.90;;;;;;4967712;28;20259;-80
2022/04/02 06:28:39;;;;;;;11.07;7.20;;;0.60;99.90;;;;;;4970252;28;20279;-82
2022/04/02 06:31:05;;;;;;;14.23;8.48;;;0.70;99.90;;;;;;4967393;28;20515;-80
2022/04/02 06:33:32;;;;;;;13.40;7.63;;;0.70;99.90;;;;;;4987370;28;20188;-82
2022/04/02 06:35:58;;;;;;;14.18;9.27;;;;;;;;;;4970621;28;20182;-80
2022/04/02 06:38:24;;;;;;;13.02;8.27;;;0.70;99.90;;;;;;4968905;28;20294;-81
2022/04/02 06:40:50;;;;;;;12.07;7.83;;;0.70;99.90;;;;;;4970806;28;20300;-81
2022/04/02 06:43:15;;;;;;;10.53;8.63;;;0.80;99.90;;;;;;4963912;28;20194;-81
2022/04/02 06:45:41;;;;;;;15.63;8.03;;;0.70;99.90;;;;;;4962744;28;20246;-80
2022/04/02 06:48:07;;;;;;;13.10;7.73;;;0.70;99.90;;;;;;4960078;28;20191;-83
2022/04/02 06:50:33;;;;;;;13.98;8.50;;;0.70;99.90;;;;;;4963892;28;20223;-79
2022/04/02 06:52:58;;;;;;;11.50;7.50;;;0.60;99.90;;;;;;4963630;28;20191;-81
2022/04/02 06:55:24;;;;;;;9.77;6.87;;;0.60;99.90;;;;;;4956671;28;20700;-81
2022/04/02 06:58:16;;;;;;;12.63;6.70;;;0.60;99.90;;;;;;4956885;28;20198;-79
2022/04/02 07:00:42;;;;;;;9.18;5.90;;;0.60;99.90;;;;;;4959826;28;20194;-82
2022/04/02 07:03:09;;;;;;;8.33;5.47;;;0.60;99.90;;;;;;4963973;28;20282;-82
2022/04/02 07:05:34;;;;;;;12.40;6.60;;;;;;;;;;4965866;28;20642;-82
2022/04/02 07:08:00;;;;;;;16.77;6.93;;;0.40;99.90;;;;;;4966950;28;20267;-82
2022/04/02 07:10:25;;;;;;;9.30;5.87;;;0.40;99.90;;;;;;4970771;28;20518;-82
2022/04/02 07:12:51;;;;;;;10.07;5.80;;;0.50;99.90;;;;;;4957830;28;20437;-81
2022/04/02 07:15:16;;;;;;;9.20;6.60;;;0.40;99.90;;;;;;4960822;28;20250;-84
2022/04/02 07:17:43;;;;;;;11.03;6.43;;;0.60;99.90;;;;;;4968595;28;20235;-82
2022/04/02 07:20:11;;;;;;;11.10;7.32;;;0.50;99.90;;;;;;4966992;28;20198;-82
2022/04/02 07:22:39;;;;;;;16.60;8.10;;;0.50;99.90;;;;;;4965457;28;20879;-84
2022/04/02 07:25:06;;;;;;;11.55;7.20;;;0.50;99.90;;;;;;4986037;28;20295;-83
2022/04/02 07:27:31;;;;;;;10.05;6.95;;;0.50;99.90;;;;;;4967278;28;20238;-83
2022/04/02 07:29:57;;;;;;;11.63;8.00;;;0.40;99.90;;;;;;4968101;28;20199;-84
2022/04/02 07:32:24;;;;;;;15.50;9.03;;;0.40;99.90;;;;;;4975348;28;20216;-82
2022/04/02 07:34:50;;;;;;;22.02;9.85;;;;;;;;;;4973296;28;20307;-83
2022/04/02 07:37:47;;;;;;;10.50;7.50;;;0.50;99.90;;;;;;4975710;28;20196;-81
2022/04/02 07:40:18;;;;;;;11.40;7.90;;;0.40;99.90;;;;;;4976662;28;20529;-81
2022/04/02 07:43:05;;;;;;;8.50;6.70;;;0.60;99.90;;;;;;4976022;28;20270;-83
2022/04/02 07:45:43;;;;;;;11.63;7.97;;;0.50;99.90;;;;;;4996751;23;20235;-84
2022/04/02 07:48:10;;;;;;;12.05;7.68;;;0.50;99.90;;;;;;4990900;28;20190;-84
2022/04/02 07:50:41;;;;;;;13.77;10.00;;;0.40;99.90;;;;;;4995964;28;20203;-84
2022/04/02 07:53:11;;;;;;;14.48;9.73;;;0.50;99.90;;;;;;4997846;28;20695;-84
2022/04/02 07:55:39;;;;;;;12.38;8.02;;;0.50;99.90;;;;;;4990553;28;20226;-84
2022/04/02 07:58:07;;;;;;;16.92;10.13;;;0.50;99.90;;;;;;4976728;28;20168;-85
2022/04/02 08:00:34;;;;;;;12.82;7.70;;;0.50;99.90;;;;;;4976722;28;20206;-84
2022/04/02 08:03:00;;;;;;;15.23;9.00;;;0.50;99.90;;;;;;4974908;28;20176;-84
2022/04/02 08:05:26;;;;;;;15.65;8.15;;;0.60;99.90;;;;;;4977290;28;20215;-84
2022/04/02 08:07:55;;;;;;;11.60;6.50;;;0.60;99.90;;;;;;4976974;28;20152;-83
2022/04/02 08:10:23;;;;;;;10.40;7.45;;;0.70;99.90;;;;;;4973909;28;20191;-84
2022/04/02 08:12:49;;;;;;;16.95;9.90;;;0.70;99.90;;;;;;4971348;28;20533;-83
2022/04/02 08:15:20;;;;;;;14.30;8.70;;;0.70;99.90;;;;;;4977373;28;20752;-83
2022/04/02 08:17:48;;;;;;;15.65;8.80;;;0.70;99.90;;;;;;4975991;28;20172;-84
2022/04/02 08:20:15;;;;;;;11.43;6.90;;;0.60;99.90;;;;;;4976552;28;20180;-84
2022/04/02 08:22:42;;;;;;;13.25;8.18;;;0.60;99.90;;;;;;4975930;28;20184;-83
2022/04/02 08:25:08;;;;;;;15.43;9.15;;;0.60;99.90;;;;;;4975862;28;20207;-85
2022/04/02 08:27:46;;;;;;;15.00;6.80;;;0.60;99.90;;;;;;4974347;28;20239;-83
2022/04/02 08:30:16;;;;;;;12.93;9.10;;;0.70;99.90;;;;;;4974307;28;20474;-84
2022/04/02 08:33:03;;;;;;;27.67;9.02;;;0.70;99.90;;;;;;4973507;28;20188;-84
2022/04/02 08:35:54;;;;;;;11.75;7.22;;;0.70;99.90;;;;;;4976387;28;20191;-84
2022/04/02 08:38:48;;;;;;;15.18;9.45;;;0.70;99.90;;;;;;4980063;28;20175;-84
2022/04/02 08:41:41;;;;;;;16.73;10.05;;;0.70;99.90;;;;;;4956946;29;20204;-84
2022/04/02 08:44:38;;;;;;;25.58;8.77;;;0.80;99.90;;;;;;4958553;28;20204;-84
2022/04/02 08:47:25;;;;;;;11.00;8.73;;;0.70;99.90;;;;;;4969237;28;20238;-84
2022/04/02 08:50:10;;;;;;;15.55;8.93;;;0.90;99.90;;;;;;4956661;28;20184;-83
2022/04/02 08:52:56;;;;;;;11.57;7.60;;;0.90;99.90;;;;;;4961113;28;20198;-84
2022/04/02 08:55:30;;;;;;;19.33;9.50;;;1.00;99.90;;;;;;4970729;28;20207;-84
2022/04/02 08:58:07;;;;;;;15.95;9.90;;;0.90;99.90;;;;;;4976095;28;20183;-84
2022/04/02 09:00:39;;;;;;;9.80;7.88;;;1.00;99.90;;;;;;4961241;28;20183;-84
2022/04/02 09:03:35;;;;;;;13.93;8.57;;;0.90;99.90;;;;;;4976081;28;20245;-83
2022/04/02 09:06:16;;;;;;;12.55;8.18;;;0.90;99.90;;;;;;4972204;28;20224;-83
2022/04/02 09:08:56;;;;;;;10.15;6.88;;;0.90;99.90;;;;;;4973017;28;20235;-84
2022/04/02 09:11:42;;;;;;;12.93;8.35;;;0.80;99.90;;;;;;4977115;28;20183;-83
2022/04/02 09:14:16;;;;;;;12.77;8.48;;;0.80;99.90;;;;;;4973012;28;20684;-85
2022/04/02 09:17:02;;;;;;;11.07;7.18;;;0.70;99.90;;;;;;4977357;28;20171;-83
2022/04/02 09:19:38;;;;;;;14.65;8.73;;;0.90;99.90;;;;;;4956749;29;20195;-84
2022/04/02 09:22:05;;;;;;;13.60;7.70;;;0.90;99.90;;;;;;4976702;28;20214;-85
2022/04/02 09:25:05;;;;;;;10.98;7.55;;;0.90;99.90;;;;;;4980131;28;20200;-85
2022/04/02 09:27:50;;;;;;;10.77;7.38;;;0.90;99.90;;;;;;4981140;28;20415;-85
2022/04/02 09:30:27;;;;;;;14.75;7.97;;;0.60;99.90;;;;;;4980369;28;20707;-84
2022/04/02 09:33:21;;;;;;;9.00;6.78;;;0.50;99.90;;;;;;4975896;28;20179;-84
2022/04/02 09:36:24;;;;;;;13.43;7.55;;;0.30;99.90;;;;;;4968855;28;20216;-84
2022/04/02 09:38:58;;;;;;;12.07;8.48;;;0.40;99.90;;;;;;4971338;28;20179;-84
2022/04/02 09:41:36;;;;;;;13.88;8.30;;;0.50;99.90;;;;;;4977059;28;20576;-84
2022/04/02 09:44:39;;;;;;;9.85;6.43;;;0.50;99.90;;;;;;4973059;28;20222;-85
2022/04/02 09:47:42;;;;;;;13.13;8.07;;;0.50;99.90;;;;;;4975949;28;20266;-85
2022/04/02 09:50:20;;;;;;;11.68;7.53;;;0.40;99.90;;;;;;4985911;28;20202;-86
2022/04/02 09:53:25;;;;;;;9.52;7.50;;;0.40;99.90;;;;;;4974917;28;20640;-84
2022/04/02 09:56:17;;;;;;;13.07;6.78;;;0.30;99.90;;;;;;4967817;28;20291;-84
2022/04/02 09:58:58;;;;;;;11.63;7.95;;;0.40;99.90;;;;;;4970681;28;20172;-85
2022/04/02 10:01:35;;;;;;;14.55;8.40;;;0.40;99.90;;;;;;4975106;28;20267;-85
2022/04/02 10:04:24;;;;;;;13.65;7.32;;;0.40;99.90;;;;;;4985627;28;20205;-85
2022/04/02 10:06:56;;;;;;;14.15;5.80;;;0.50;99.90;;;;;;4953454;28;20256;-85
2022/04/02 10:09:30;;;;;;;8.73;6.40;;;0.50;99.90;;;;;;4962976;28;20203;-85
2022/04/02 10:11:58;;;;;;;9.85;7.28;;;0.60;99.90;;;;;;4972769;28;20180;-84
2022/04/02 10:14:26;;;;;;;10.40;7.30;;;0.50;99.90;;;;;;4966200;28;20731;-85
2022/04/02 10:16:55;;;;;;;10.63;5.95;;;0.50;99.90;;;;;;4970331;28;20160;-85
2022/04/02 10:19:32;;;;;;;12.20;8.18;;;0.60;99.90;;;;;;4976431;28;20191;-85
2022/04/02 10:22:08;;;;;;;8.95;6.55;;;0.60;99.90;;;;;;4975190;28;20196;-84
2022/04/02 10:24:47;;;;;;;11.10;7.50;;;0.50;99.90;;;;;;4974881;28;20214;-84
2022/04/02 10:27:40;;;;;;;15.93;9.57;;;0.60;99.90;;;;;;4975900;28;20180;-85
2022/04/02 10:30:09;;;;;;;11.13;6.95;;;0.60;99.90;;;;;;4984105;28;20777;-84
2022/04/02 10:33:26;;;;;;;9.75;7.22;;;0.70;99.90;;;;;;4976155;28;20180;-85
2022/04/02 10:35:48;;;;;;;13.63;8.80;;;0.80;99.90;;;;;;4971238;28;20216;-85
2022/04/02 10:38:34;;;;;;;11.38;8.63;;;1.00;99.90;;;;;;4977059;28;20180;-86
2022/04/02 10:41:04;;;;;;;11.63;8.55;;;1.10;99.90;;;;;;4973435;28;20187;-84
2022/04/02 10:43:35;;;;;;;16.88;9.38;;;1.10;99.90;;;;;;4978421;28;20184;-85
2022/04/02 10:46:03;;;;;;;13.90;8.80;;;1.10;99.90;;;;;;4974050;28;20215;-85
2022/04/02 10:48:55;;;;;;;10.55;7.40;;;1.20;99.90;;;;;;4972490;28;20695;-84
2022/04/02 10:51:26;;;;;;;10.25;7.28;;;1.10;99.90;;;;;;4975030;28;20558;-84
2022/04/02 10:54:09;;;;;;;12.85;7.68;;;0.90;99.90;;;;;;4974520;28;20231;-84
2022/04/02 10:56:46;;;;;;;35.00;14.40;;;0.90;99.90;;;;;;4982309;28;20183;-84
2022/04/02 10:59:21;;;;;;;12.77;8.63;;;1.00;99.90;;;;;;4973086;28;20184;-84
2022/04/02 11:01:52;;;;;;;16.88;9.77;;;1.10;99.90;;;;;;4965250;28;20183;-84
2022/04/02 11:04:37;;;;;;;11.45;8.10;;;1.20;99.90;;;;;;4977785;28;20546;-83
2022/04/02 11:07:04;;;;;;;11.45;7.35;;;1.10;99.90;;;;;;4965212;28;20180;-85
2022/04/02 11:09:36;;;;;;;13.75;8.23;;;1.00;99.90;;;;;;4976029;28;20258;-84
2022/04/02 11:12:05;;;;;;;9.98;7.72;;;0.90;99.90;;;;;;4976717;28;20204;-84
2022/04/02 11:14:38;;;;;;;9.52;6.95;;;0.80;99.90;;;;;;4974055;28;20736;-85
2022/04/02 11:17:04;;;;;;;8.73;6.63;;;0.70;99.90;;;;;;4980192;28;20525;-84
2022/04/02 11:19:54;;;;;;;13.60;8.53;;;0.70;99.90;;;;;;4976402;28;20183;-85
2022/04/02 11:22:29;;;;;;;15.27;10.02;;;0.80;99.90;;;;;;4967748;28;20235;-84
2022/04/02 11:25:03;;;;;;;13.27;8.50;;;0.90;99.90;;;;;;4972265;28;20195;-85
2022/04/02 11:27:29;;;;;;;13.38;8.07;;;0.80;99.90;;;;;;4976108;28;20187;-85
2022/04/02 11:30:06;;;;;;;16.88;8.15;;;0.90;99.90;;;;;;4978176;28;20196;-85
2022/04/02 11:32:46;;;;;;;15.02;9.70;;;0.80;99.90;;;;;;4977931;28;20156;-84
2022/04/02 11:35:15;;;;;;;15.50;9.35;;;0.80;99.90;;;;;;4977648;28;20196;-84
2022/04/02 11:38:02;;;;;;;12.95;7.88;;;0.90;99.90;;;;;;4978109;28;20168;-84
2022/04/02 11:40:29;;;;;;;20.73;10.63;;;1.00;99.90;;;;;;4975705;28;20176;-85
2022/04/02 11:43:00;;;;;;;16.45;10.52;;;0.80;99.90;;;;;;4978570;28;20190;-84
2022/04/02 11:45:26;;;;;;;13.23;8.48;;;0.90;99.90;;;;;;4968938;28;20515;-84
2022/04/02 11:48:00;;;;;;;12.73;9.77;;;0.90;99.90;;;;;;4976000;28;20223;-83
2022/04/02 11:50:30;;;;;;;18.23;11.10;;;1.10;99.90;;;;;;4975935;28;20454;-84
2022/04/02 11:52:59;;;;;;;10.63;7.82;;;1.10;99.90;;;;;;4977431;28;20577;-83
2022/04/02 11:55:27;;;;;;;19.33;9.05;;;1.10;99.90;;;;;;4977070;28;20216;-84
2022/04/02 11:57:59;;;;;;;13.93;9.73;;;1.20;99.90;;;;;;4978338;28;20184;-83
2022/04/02 12:00:28;;;;;;;14.57;8.30;;;1.30;99.90;;;;;;4978383;28;20663;-84
2022/04/02 12:02:54;;;;;;;14.80;10.80;;;1.30;99.90;;;;;;4977651;28;20172;-84
2022/04/02 12:05:22;;;;;;;11.15;6.82;;;1.40;99.90;;;;;;4977519;28;20196;-84
2022/04/02 12:07:50;;;;;;;14.27;9.55;;;1.50;99.90;;;;;;4988709;28;20661;-83
2022/04/02 12:10:18;;;;;;;12.65;9.35;;;1.30;99.90;;;;;;4971802;28;20736;-83
2022/04/02 12:12:49;;;;;;;15.23;8.90;;;1.40;99.90;;;;;;4976094;28;20648;-83
2022/04/02 12:15:16;;;;;;;12.25;8.02;;;1.30;99.90;;;;;;4978869;28;20202;-84
2022/04/02 12:17:53;;;;;;;17.02;9.65;;;1.20;99.90;;;;;;4978826;28;20215;-83
2022/04/02 12:20:35;;;;;;;14.60;9.80;;;1.30;99.90;;;;;;4979167;28;20187;-84
2022/04/02 12:23:17;;;;;;;14.43;9.57;;;1.40;99.90;;;;;;4978753;28;20143;-83
2022/04/02 12:25:54;;;;;;;16.15;8.75;;;1.60;99.90;;;;;;4977510;28;20207;-84
2022/04/02 12:28:20;;;;;;;11.77;9.07;;;1.50;99.90;;;;;;4959635;28;20652;-83
2022/04/02 12:30:49;;;;;;;14.88;9.05;;;1.30;99.90;;;;;;4959388;28;20211;-83
2022/04/02 12:33:21;;;;;;;15.48;9.85;;;1.20;99.90;;;;;;4957558;29;20267;-84
2022/04/02 12:36:08;;;;;;;26.58;9.88;;;1.10;99.90;;;;;;4957409;29;20216;-84
2022/04/02 12:38:40;;;;;;;16.30;8.77;;;1.10;99.90;;;;;;4959582;28;20172;-84
2022/04/02 12:41:17;;;;;;;18.42;9.77;;;0.90;99.90;;;;;;4957635;28;20161;-84
2022/04/02 12:43:47;;;;;;;19.45;9.57;;;1.20;99.90;;;;;;4958160;28;20268;-84
2022/04/02 12:46:27;;;;;;;18.77;11.45;;;1.20;99.90;;;;;;4976816;28;20210;-84
2022/04/02 12:48:54;;;;;;;14.00;8.98;;;1.20;99.90;;;;;;4974682;28;20270;-84
2022/04/02 12:51:20;;;;;;;17.38;10.35;;;1.40;99.90;;;;;;4961997;28;20199;-83
2022/04/02 12:54:01;;;;;;;16.17;10.65;;;1.40;99.90;;;;;;4974368;28;20230;-84
2022/04/02 12:56:35;;;;;;;20.05;9.85;;;1.40;99.90;;;;;;4976266;28;20171;-84
2022/04/02 12:59:01;;;;;;;14.60;9.43;;;1.40;99.90;;;;;;4975709;28;20180;-83
2022/04/02 13:01:33;;;;;;;18.05;12.52;;;1.40;99.90;;;;;;4978632;28;20180;-84
2022/04/02 13:04:03;;;;;;;18.02;11.07;;;1.30;99.90;;;;;;4981469;28;20202;-83
2022/04/02 13:06:30;;;;;;;16.85;9.85;;;1.30;99.90;;;;;;4958381;28;20640;-83